Time;durP1;ratioP1;P1;durP2;ratioP2;P2;SDS_P1;SDS_P2;PMS_P1;PMS_P2;Temp;Humidity;BMP_temperature;BMP_pressure;BME280_temperature;BME280_humidity;BME280_pressure;Samples;Min_cycle;Max_cycle;Signal;HPM_P1;HPM_P2
2022/01/23 00:01:53;;;;;;;25.67;10.03;;;;;;;;;;5053504;28;20184;-87
2022/01/23 00:04:19;;;;;;;23.20;9.63;;;;;;;;;;5052604;28;20615;-87
2022/01/23 00:06:46;;;;;;;21.57;12.93;;;;;;;;;;5054951;28;20184;-86
2022/01/23 00:09:14;;;;;;;18.40;8.43;;;;;;;;;;5053589;28;20222;-85
2022/01/23 00:11:47;;;;;;;25.07;10.43;;;;;;;;;;5055359;28;20172;-85
2022/01/23 00:17:17;;;;;;;24.27;10.97;;;;;;;;;;5053056;28;20644;-87
2022/01/23 00:19:43;;;;;;;22.07;10.97;;;;;;;;;;5054594;28;20172;-86
2022/01/23 00:22:10;;;;;;;24.33;12.93;;;;;;;;;;5052627;28;20183;-86
2022/01/23 00:30:26;;;;;;;21.10;12.40;;;;;;;;;;5052725;28;20249;-85
2022/01/23 00:32:53;;;;;;;25.20;12.00;;;;;;;;;;5053627;28;20183;-86
2022/01/23 00:35:19;;;;;;;26.07;12.93;;;;;;;;;;5054093;28;20172;-86
2022/01/23 00:37:45;;;;;;;25.37;11.80;;;;;;;;;;5053126;28;20190;-86
2022/01/23 00:40:12;;;;;;;28.00;13.50;;;-1.60;99.90;;;;;;5051878;28;20195;-85
2022/01/23 00:42:38;;;;;;;28.90;12.00;;;;;;;;;;5036240;28;20578;-86
2022/01/23 00:47:34;;;;;;;20.57;9.77;;;;;;;;;;5053651;28;20180;-86
2022/01/23 00:50:00;;;;;;;18.67;9.90;;;;;;;;;;5053283;28;20203;-86
2022/01/23 00:52:25;;;;;;;17.63;10.77;;;;;;;;;;5053636;28;20173;-86
2022/01/23 00:54:52;;;;;;;16.93;8.83;;;;;;;;;;5052499;28;20182;-86
2022/01/23 00:57:18;;;;;;;19.03;10.33;;;;;;;;;;5052817;28;20194;-86
2022/01/23 00:59:44;;;;;;;18.13;9.87;;;;;;;;;;5052755;28;20188;-86
2022/01/23 01:02:10;;;;;;;17.77;8.97;;;;;;;;;;5053863;28;20203;-85
2022/01/23 01:04:36;;;;;;;17.17;8.53;;;;;;;;;;5052341;28;20241;-86
2022/01/23 01:07:02;;;;;;;14.00;7.70;;;;;;;;;;5053720;28;20178;-87
2022/01/23 01:09:29;;;;;;;15.90;9.17;;;;;;;;;;5053721;28;22064;-86
2022/01/23 01:12:04;;;;;;;17.73;7.80;;;;;;;;;;5052393;28;20178;-87
2022/01/23 01:17:24;;;;;;;17.50;7.37;;;;;;;;;;5054282;28;20175;-87
2022/01/23 01:36:36;;;;;;;11.87;7.73;;;;;;;;;;5057756;28;20200;-86
2022/01/23 01:39:04;;;;;;;15.33;8.00;;;-1.60;99.90;;;;;;5057702;28;20180;-86
2022/01/23 01:41:30;;;;;;;14.63;7.43;;;;;;;;;;5058449;28;20176;-87
2022/01/23 01:43:57;;;;;;;15.50;8.00;;;;;;;;;;5056209;28;20187;-86
2022/01/23 01:46:24;;;;;;;11.80;6.57;;;;;;;;;;5055771;28;20629;-86
2022/01/23 01:48:50;;;;;;;12.33;7.60;;;;;;;;;;5057324;28;20182;-86
2022/01/23 01:51:17;;;;;;;13.23;7.33;;;;;;;;;;5057154;28;20200;-86
2022/01/23 01:54:02;;;;;;;12.63;7.43;;;-1.70;99.90;;;;;;5056036;28;20183;-86
2022/01/23 01:56:35;;;;;;;10.63;6.37;;;;;;;;;;5041749;28;20190;-87
2022/01/23 02:17:27;;;;;;;15.97;6.83;;;;;;;;;;5077883;28;20172;-85
2022/01/23 02:55:16;;;;;;;12.13;6.47;;;;;;;;;;5068673;28;20648;-85
2022/01/23 03:00:15;;;;;;;12.60;6.13;;;-1.50;99.90;;;;;;5058487;28;20192;-85
2022/01/23 03:02:47;;;;;;;14.40;7.13;;;;;;;;;;5058853;28;20186;-84
2022/01/23 03:05:24;;;;;;;12.27;6.97;;;;;;;;;;5060872;28;20172;-85
2022/01/23 03:07:58;;;;;;;11.43;7.47;;;;;;;;;;5059719;28;20185;-84
2022/01/23 03:10:40;;;;;;;13.57;7.07;;;;;;;;;;5060627;28;20273;-86
2022/01/23 03:27:01;;;;;;;16.83;9.13;;;;;;;;;;5015155;28;20722;-85
2022/01/23 03:29:39;;;;;;;13.10;7.17;;;;;;;;;;5027912;28;20724;-85
2022/01/23 03:32:21;;;;;;;13.53;7.90;;;-1.50;99.90;;;;;;5056396;28;20202;-86
2022/01/23 03:34:47;;;;;;;12.60;7.63;;;;;;;;;;5055901;28;20234;-85
2022/01/23 03:37:13;;;;;;;15.13;8.00;;;;;;;;;;5057502;28;20176;-86
2022/01/23 03:39:39;;;;;;;11.37;7.43;;;;;;;;;;5057961;28;20186;-87
2022/01/23 03:42:05;;;;;;;13.57;7.73;;;;;;;;;;5056595;28;20179;-86
2022/01/23 03:44:33;;;;;;;11.17;6.40;;;;;;;;;;5056195;28;20172;-85
2022/01/23 03:49:44;;;;;;;15.23;7.80;;;;;;;;;;5056345;28;20217;-86
2022/01/23 03:52:11;;;;;;;14.10;7.40;;;-1.40;99.90;;;;;;5054861;28;20260;-86
2022/01/23 03:54:39;;;;;;;13.93;7.10;;;-1.30;99.90;;;;;;5052708;28;20227;-85
2022/01/23 03:57:07;;;;;;;15.10;7.77;;;-1.50;99.90;;;;;;5053027;28;20230;-86
2022/01/23 03:59:33;;;;;;;15.13;7.23;;;;;;;;;;5035880;28;20219;-85
2022/01/23 04:02:00;;;;;;;13.30;7.40;;;;;;;;;;5036702;28;20585;-86
2022/01/23 04:04:42;;;;;;;14.70;7.13;;;;;;;;;;5052473;28;20229;-86
2022/01/23 04:07:11;;;;;;;11.60;6.70;;;-1.40;99.90;;;;;;5053024;28;20529;-87
2022/01/23 04:09:38;;;;;;;12.43;6.20;;;;;;;;;;5052315;28;20237;-86
2022/01/23 04:12:06;;;;;;;10.10;6.27;;;-1.40;99.90;;;;;;5036263;28;20614;-86
2022/01/23 04:14:34;;;;;;;10.03;6.80;;;;;;;;;;5053819;28;20176;-86
2022/01/23 04:20:27;;;;;;;9.90;5.33;;;;;;;;;;5053522;28;20226;-85
2022/01/23 04:47:51;;;;;;;8.87;4.27;;;;;;;;;;5053414;28;20184;-85
2022/01/23 05:00:54;;;;;;;6.47;3.50;;;;;;;;;;5052001;28;20187;-87
2022/01/23 05:05:58;;;;;;;10.03;5.47;;;;;;;;;;5052511;28;20538;-86
2022/01/23 05:08:27;;;;;;;8.33;4.40;;;;;;;;;;5052383;28;20192;-87
2022/01/23 05:10:54;;;;;;;7.60;4.33;;;;;;;;;;5035074;28;20215;-86
2022/01/23 05:13:20;;;;;;;9.13;4.40;;;;;;;;;;5037248;28;20193;-86
2022/01/23 05:15:46;;;;;;;7.13;4.23;;;;;;;;;;5051483;28;20187;-86
2022/01/23 05:18:12;;;;;;;9.43;5.40;;;;;;;;;;5035278;28;20542;-86
2022/01/23 05:20:40;;;;;;;11.57;6.07;;;;;;;;;;5051867;28;20237;-86
2022/01/23 05:23:07;;;;;;;11.53;5.03;;;;;;;;;;5035237;28;20219;-86
2022/01/23 05:25:36;;;;;;;9.40;5.10;;;;;;;;;;5051928;28;20238;-86
2022/01/23 05:28:02;;;;;;;15.20;7.60;;;;;;;;;;5051555;28;20184;-86
2022/01/23 05:30:28;;;;;;;13.10;6.57;;;;;;;;;;5052759;28;20300;-86
2022/01/23 05:32:57;;;;;;;15.27;7.33;;;;;;;;;;5051352;28;20237;-86
2022/01/23 05:35:24;;;;;;;14.17;7.27;;;;;;;;;;5053036;28;20172;-87
2022/01/23 05:37:50;;;;;;;10.53;5.77;;;;;;;;;;5053010;28;20183;-87
2022/01/23 05:40:19;;;;;;;9.03;5.13;;;;;;;;;;5051584;28;20187;-86
2022/01/23 05:42:45;;;;;;;6.57;4.67;;;;;;;;;;5051794;28;20278;-86
2022/01/23 05:45:11;;;;;;;16.80;9.43;;;;;;;;;;5035174;28;20180;-85
2022/01/23 05:47:37;;;;;;;15.93;6.60;;;;;;;;;;5051507;28;20704;-86
2022/01/23 05:50:04;;;;;;;17.40;5.43;;;-2.00;99.90;;;;;;5051123;28;20712;-86
2022/01/23 05:52:31;;;;;;;12.07;6.03;;;;;;;;;;5051341;28;20267;-86
2022/01/23 05:54:57;;;;;;;18.80;7.57;;;;;;;;;;5034923;28;20659;-86
2022/01/23 05:57:23;;;;;;;15.47;6.80;;;;;;;;;;5051283;28;20314;-85
2022/01/23 05:59:50;;;;;;;15.50;6.43;;;;;;;;;;5052583;28;20214;-85
2022/01/23 06:02:16;;;;;;;14.10;7.03;;;;;;;;;;5034801;28;20673;-85
2022/01/23 06:04:42;;;;;;;12.27;5.63;;;;;;;;;;5052690;28;20238;-86
2022/01/23 06:07:08;;;;;;;19.03;7.30;;;;;;;;;;5050867;28;20394;-85
2022/01/23 06:09:37;;;;;;;17.00;6.67;;;;;;;;;;5051009;28;20194;-86
2022/01/23 06:12:04;;;;;;;14.27;7.30;;;-2.00;99.90;;;;;;5034802;28;20650;-87
2022/01/23 06:14:30;;;;;;;19.97;8.33;;;;;;;;;;5051775;28;20176;-86
2022/01/23 06:16:56;;;;;;;16.47;8.87;;;-2.10;99.90;;;;;;5050743;28;20648;-86
2022/01/23 06:19:22;;;;;;;28.17;10.37;;;;;;;;;;5051064;28;20226;-87
2022/01/23 06:21:49;;;;;;;23.87;10.37;;;;;;;;;;5037815;28;20269;-85
2022/01/23 06:24:24;;;;;;;29.57;11.50;;;;;;;;;;5042256;28;20181;-85
2022/01/23 06:26:55;;;;;;;32.03;11.87;;;-1.50;99.90;;;;;;5031325;28;20823;-86
2022/01/23 06:29:22;;;;;;;80.33;24.30;;;-2.10;99.90;;;;;;5032324;28;20202;-86
2022/01/23 06:31:50;;;;;;;34.50;13.33;;;-2.10;99.90;;;;;;5016235;28;20193;-86
2022/01/23 06:34:17;;;;;;;18.37;8.17;;;-2.10;99.90;;;;;;5032089;28;20517;-86
2022/01/23 06:36:44;;;;;;;43.67;13.70;;;-2.10;99.90;;;;;;5032688;28;20614;-86
2022/01/23 06:39:12;;;;;;;19.40;8.43;;;-2.10;99.90;;;;;;5032891;28;20212;-89
2022/01/23 06:41:38;;;;;;;21.53;8.90;;;-2.10;99.90;;;;;;5033738;28;20192;-85
2022/01/23 06:44:05;;;;;;;185.63;48.17;;;-2.10;99.90;;;;;;5031438;28;20196;-85
2022/01/23 06:46:31;;;;;;;40.00;15.33;;;;;;;;;;5032141;28;20276;-85
2022/01/23 06:48:57;;;;;;;33.13;11.43;;;;;;;;;;5032971;28;20616;-85
2022/01/23 06:51:23;;;;;;;16.20;8.17;;;;;;;;;;5033490;28;20689;-85
2022/01/23 06:53:49;;;;;;;21.33;8.37;;;;;;;;;;5015441;28;20191;-84
2022/01/23 06:56:15;;;;;;;17.27;7.33;;;;;;;;;;5031308;28;20714;-84
2022/01/23 06:58:41;;;;;;;18.43;6.83;;;;;;;;;;5015638;28;20190;-85
2022/01/23 07:01:07;;;;;;;15.67;7.17;;;;;;;;;;5032362;28;20222;-88
2022/01/23 07:03:34;;;;;;;10.63;5.63;;;-2.10;99.90;;;;;;5032438;28;20228;-84
2022/01/23 07:06:00;;;;;;;12.10;6.53;;;;;;;;;;5032230;28;20191;-85
2022/01/23 07:08:26;;;;;;;10.77;5.93;;;;;;;;;;5031878;28;20224;-84
2022/01/23 07:10:52;;;;;;;14.20;6.97;;;;;;;;;;5032679;28;20683;-85
2022/01/23 07:13:18;;;;;;;20.83;9.80;;;;;;;;;;5032081;28;20185;-85
2022/01/23 07:15:44;;;;;;;11.17;6.63;;;;;;;;;;5031227;28;20200;-85
2022/01/23 07:18:10;;;;;;;21.73;9.73;;;;;;;;;;5031529;28;20197;-85
2022/01/23 07:20:37;;;;;;;14.23;7.57;;;;;;;;;;5015141;28;20262;-83
2022/01/23 07:23:03;;;;;;;8.80;4.83;;;;;;;;;;5031249;28;20189;-85
2022/01/23 07:25:29;;;;;;;15.90;6.80;;;;;;;;;;5014618;28;20195;-87
2022/01/23 07:27:58;;;;;;;9.13;5.70;;;;;;;;;;5031181;28;20196;-85
2022/01/23 07:30:35;;;;;;;12.73;5.90;;;;;;;;;;5015715;28;20213;-86
2022/01/23 07:33:01;;;;;;;9.97;5.53;;;;;;;;;;5017341;28;20240;-85
2022/01/23 07:35:27;;;;;;;11.40;5.43;;;;;;;;;;5014392;28;20219;-84
2022/01/23 07:37:53;;;;;;;10.73;5.87;;;;;;;;;;5032778;28;20189;-83
2022/01/23 07:40:19;;;;;;;13.20;6.20;;;;;;;;;;5030660;28;20679;-84
2022/01/23 07:42:45;;;;;;;13.73;7.47;;;;;;;;;;5014500;28;20729;-84
2022/01/23 07:45:11;;;;;;;8.30;4.60;;;;;;;;;;5017703;28;20256;-84
2022/01/23 07:47:38;;;;;;;8.60;5.40;;;;;;;;;;5032542;28;20182;-84
2022/01/23 07:50:06;;;;;;;9.60;5.10;;;-1.80;99.90;;;;;;5030341;28;20219;-83
2022/01/23 07:52:35;;;;;;;10.07;5.50;;;;;;;;;;5030927;28;20187;-84
2022/01/23 07:55:06;;;;;;;12.77;5.17;;;-2.00;99.90;;;;;;5028413;28;20187;-84
2022/01/23 07:57:32;;;;;;;7.83;4.87;;;;;;;;;;5030684;28;20199;-84
2022/01/23 07:59:59;;;;;;;9.30;5.63;;;;;;;;;;5031829;28;20261;-84
2022/01/23 08:02:25;;;;;;;14.87;6.70;;;;;;;;;;5016022;28;20187;-83
2022/01/23 08:04:51;;;;;;;13.13;6.13;;;;;;;;;;5013022;28;20236;-84
2022/01/23 08:07:36;;;;;;;8.80;5.13;;;;;;;;;;5030985;28;20214;-84
2022/01/23 08:10:05;;;;;;;5.77;4.10;;;-1.90;99.90;;;;;;5030016;28;20580;-84
2022/01/23 08:12:31;;;;;;;6.87;4.30;;;;;;;;;;5030133;28;20222;-84
2022/01/23 08:14:59;;;;;;;8.63;4.97;;;-1.90;99.90;;;;;;5031498;28;20190;-84
2022/01/23 08:17:26;;;;;;;13.80;6.83;;;;;;;;;;5027423;28;20188;-84
2022/01/23 08:19:56;;;;;;;10.63;4.93;;;-1.80;99.90;;;;;;5028070;28;20248;-84
2022/01/23 08:22:23;;;;;;;12.93;6.30;;;-1.90;99.90;;;;;;5030043;28;20182;-83
2022/01/23 08:24:49;;;;;;;16.20;7.20;;;;;;;;;;5010490;28;20231;-84
2022/01/23 08:27:16;;;;;;;12.33;5.20;;;;;;;;;;5029960;28;20187;-83
2022/01/23 08:29:42;;;;;;;18.00;7.30;;;;;;;;;;5027495;28;20280;-84
2022/01/23 08:32:08;;;;;;;17.57;8.77;;;-1.80;99.90;;;;;;5030933;28;20219;-84
2022/01/23 08:34:35;;;;;;;11.80;6.17;;;;;;;;;;5029949;28;20625;-84
2022/01/23 08:37:02;;;;;;;13.73;5.93;;;-1.80;99.90;;;;;;5035119;28;20205;-84
2022/01/23 08:39:31;;;;;;;13.10;5.50;;;;;;;;;;5022347;28;20731;-84
2022/01/23 08:41:57;;;;;;;12.13;7.10;;;;;;;;;;5038662;28;20655;-83
2022/01/23 08:44:25;;;;;;;17.83;7.57;;;-1.80;99.90;;;;;;5038093;28;20598;-82
2022/01/23 08:46:51;;;;;;;18.30;8.13;;;;;;;;;;5043598;28;20206;-82
2022/01/23 08:49:19;;;;;;;15.43;7.20;;;-1.60;99.90;;;;;;5039601;28;20223;-83
2022/01/23 08:51:47;;;;;;;13.67;6.10;;;-1.60;99.90;;;;;;5041664;28;20277;-82
2022/01/23 08:54:13;;;;;;;26.70;9.43;;;;;;;;;;5036981;28;20208;-84
2022/01/23 08:56:39;;;;;;;56.17;16.63;;;;;;;;;;5044529;28;20185;-83
2022/01/23 08:59:05;;;;;;;11.03;6.23;;;;;;;;;;5024532;28;20188;-83
2022/01/23 09:01:31;;;;;;;32.47;9.93;;;;;;;;;;5039156;28;20208;-83
2022/01/23 09:03:57;;;;;;;80.40;23.53;;;;;;;;;;5047309;28;20852;-83
2022/01/23 09:06:24;;;;;;;34.90;10.97;;;;;;;;;;5038998;28;20725;-84
2022/01/23 09:08:51;;;;;;;43.77;13.50;;;;;;;;;;5021457;28;20186;-83
2022/01/23 09:14:06;;;;;;;53.33;14.53;;;-1.40;99.90;;;;;;5060495;28;20164;-83
2022/01/23 09:16:37;;;;;;;73.10;18.17;;;-1.30;99.90;;;;;;5059547;28;20239;-82
2022/01/23 09:19:04;;;;;;;79.63;22.30;;;;;;;;;;5035088;28;20275;-83
2022/01/23 09:21:30;;;;;;;75.30;21.87;;;;;;;;;;5051621;28;20281;-84
2022/01/23 09:23:56;;;;;;;66.53;19.40;;;;;;;;;;5057020;28;20188;-84
2022/01/23 09:26:23;;;;;;;21.93;9.23;;;;;;;;;;5059951;28;20229;-83
2022/01/23 09:28:49;;;;;;;15.47;6.30;;;;;;;;;;5054233;28;20176;-84
2022/01/23 09:31:26;;;;;;;12.33;6.57;;;;;;;;;;5045955;28;20363;-82
2022/01/23 09:33:52;;;;;;;20.03;10.33;;;;;;;;;;5024917;28;20263;-85
2022/01/23 09:36:18;;;;;;;33.67;15.87;;;;;;;;;;5043324;28;20174;-85
2022/01/23 09:38:44;;;;;;;12.00;6.37;;;;;;;;;;5035087;28;20170;-83
2022/01/23 09:41:11;;;;;;;11.30;5.17;;;;;;;;;;5048915;28;20193;-85
2022/01/23 09:43:41;;;;;;;16.53;8.90;;;-1.10;99.90;;;;;;5051337;28;20184;-86
2022/01/23 09:46:07;;;;;;;18.40;8.80;;;0.70;99.90;;;;;;5048716;28;20185;-84
2022/01/23 09:48:35;;;;;;;13.83;7.20;;;-1.00;99.90;;;;;;5031639;28;20199;-83
2022/01/23 09:51:02;;;;;;;23.77;8.83;;;-1.10;99.90;;;;;;5032659;28;20223;-83
2022/01/23 09:53:29;;;;;;;25.50;10.40;;;-1.00;99.90;;;;;;5031179;28;20253;-83
2022/01/23 09:55:59;;;;;;;24.87;9.87;;;;;;;;;;5030627;28;20181;-82
2022/01/23 09:58:25;;;;;;;22.50;9.63;;;-1.00;99.90;;;;;;5031148;28;20191;-82
2022/01/23 10:00:52;;;;;;;40.83;13.13;;;;;;;;;;5033609;28;20207;-84
2022/01/23 10:03:19;;;;;;;20.37;9.30;;;;;;;;;;5033839;28;20228;-85
2022/01/23 10:05:51;;;;;;;13.83;6.60;;;-0.90;99.90;;;;;;5028914;28;20309;-84
2022/01/23 10:08:18;;;;;;;22.13;7.60;;;;;;;;;;5034764;28;20237;-83
2022/01/23 10:10:50;;;;;;;15.77;7.40;;;;;;;;;;5028961;28;20225;-82
2022/01/23 10:13:16;;;;;;;19.03;7.73;;;;;;;;;;5031790;28;20193;-81
2022/01/23 10:15:43;;;;;;;16.40;8.00;;;;;;;;;;5030890;28;20297;-81
2022/01/23 10:18:09;;;;;;;14.33;6.27;;;;;;;;;;5030473;28;20499;-82
2022/01/23 10:20:35;;;;;;;10.03;6.20;;;;;;;;;;5013482;28;20250;-80
2022/01/23 10:23:01;;;;;;;8.13;5.07;;;;;;;;;;5027526;28;20272;-81
2022/01/23 10:25:29;;;;;;;16.17;9.77;;;-1.00;99.90;;;;;;5030335;28;20238;-84
2022/01/23 10:28:00;;;;;;;20.93;10.70;;;;;;;;;;5014115;28;20187;-82
2022/01/23 10:30:28;;;;;;;19.30;10.07;;;-1.20;99.90;;;;;;5030923;28;20680;-82
2022/01/23 10:32:59;;;;;;;13.00;7.27;;;-1.30;99.90;;;;;;5014373;28;20527;-82
2022/01/23 10:35:25;;;;;;;13.70;7.60;;;;;;;;;;5031759;28;20187;-82
2022/01/23 10:37:52;;;;;;;12.70;6.33;;;-1.00;99.90;;;;;;5029169;28;20192;-81
2022/01/23 10:40:22;;;;;;;18.03;7.47;;;;;;;;;;5032059;28;20195;-82
2022/01/23 10:48:35;;;;;;;28.87;11.80;;;-0.80;99.90;;;;;;5029857;28;20194;-84
2022/01/23 10:51:36;;;;;;;28.20;11.93;;;-0.70;99.90;;;;;;5029265;28;20208;-82
2022/01/23 10:54:05;;;;;;;34.73;14.10;;;-1.20;99.90;;;;;;5026515;28;20193;-84
2022/01/23 10:56:53;;;;;;;53.40;21.20;;;-1.30;99.90;;;;;;5029428;28;20204;-85
2022/01/23 10:59:19;;;;;;;36.13;13.40;;;;;;;;;;5028174;28;20688;-83
2022/01/23 11:02:07;;;;;;;26.17;10.03;;;-1.10;99.90;;;;;;5010720;28;20254;-83
2022/01/23 11:04:35;;;;;;;28.40;12.07;;;-1.00;99.90;;;;;;5043460;28;20341;-83
2022/01/23 11:07:05;;;;;;;17.57;9.57;;;-0.90;99.90;;;;;;5014278;28;20192;-83
2022/01/23 11:09:36;;;;;;;12.63;5.93;;;-1.00;99.90;;;;;;5029347;28;20182;-83
2022/01/23 11:12:12;;;;;;;10.20;5.63;;;;;;;;;;5032363;28;20247;-83
2022/01/23 11:17:53;;;;;;;10.90;5.90;;;-1.10;99.90;;;;;;5008854;28;20967;-83
2022/01/23 11:20:49;;;;;;;13.57;6.63;;;-1.00;99.90;;;;;;4976770;28;20195;-83
2022/01/23 11:23:23;;;;;;;10.93;5.63;;;-1.20;99.90;;;;;;5014720;28;20222;-83
2022/01/23 11:25:52;;;;;;;9.00;6.13;;;-0.90;99.90;;;;;;5029539;28;20203;-82
2022/01/23 11:28:18;;;;;;;16.77;8.97;;;;;;;;;;5030490;28;20257;-82
2022/01/23 11:30:46;;;;;;;18.53;9.57;;;-0.80;99.90;;;;;;5034090;28;20222;-84
2022/01/23 11:33:18;;;;;;;13.43;6.37;;;-0.40;99.90;;;;;;5030492;28;20724;-85
2022/01/23 11:35:48;;;;;;;14.13;5.53;;;0.00;99.90;;;;;;5028623;28;20193;-84
2022/01/23 11:38:17;;;;;;;9.07;5.70;;;-0.20;98.70;;;;;;5029716;28;20700;-86
2022/01/23 11:54:04;;;;;;;24.20;9.23;;;-0.10;99.90;;;;;;5034087;28;20695;-85
2022/01/23 11:56:32;;;;;;;10.83;5.90;;;;;;;;;;5032310;28;20268;-84
2022/01/23 11:59:14;;;;;;;82.57;20.77;;;-0.20;99.90;;;;;;5029910;28;20217;-83
2022/01/23 12:01:41;;;;;;;30.63;11.43;;;-0.30;99.90;;;;;;5028804;28;20189;-82
2022/01/23 12:04:16;;;;;;;13.53;7.03;;;;;;;;;;5028996;28;20235;-83
2022/01/23 12:06:44;;;;;;;12.07;6.33;;;;;;;;;;5031156;28;20220;-84
2022/01/23 12:09:11;;;;;;;12.93;5.63;;;;;;;;;;5013231;28;20198;-82
2022/01/23 12:11:49;;;;;;;6.53;4.60;;;-0.50;99.90;;;;;;5028907;28;20224;-84
2022/01/23 12:16:52;;;;;;;5.43;3.63;;;-0.70;99.90;;;;;;5030674;28;20190;-83
2022/01/23 12:19:22;;;;;;;12.93;7.23;;;-0.60;99.90;;;;;;5029315;28;20275;-82
2022/01/23 12:21:52;;;;;;;13.17;6.00;;;-0.70;99.90;;;;;;5030866;28;20934;-82
2022/01/23 12:24:18;;;;;;;10.83;5.87;;;;;;;;;;5030064;28;20197;-83
2022/01/23 12:26:46;;;;;;;15.93;7.30;;;-0.70;99.90;;;;;;5014021;28;20549;-82
2022/01/23 12:29:17;;;;;;;58.43;16.73;;;-0.90;99.90;;;;;;5029697;28;20189;-81
2022/01/23 12:31:43;;;;;;;26.07;8.70;;;;;;;;;;5030249;28;20262;-84
2022/01/23 12:34:09;;;;;;;27.90;10.20;;;;;;;;;;5028933;28;20197;-82
2022/01/23 12:36:37;;;;;;;50.97;14.27;;;-0.70;99.90;;;;;;5028701;28;20315;-82
2022/01/23 12:39:09;;;;;;;14.10;6.27;;;-0.80;99.90;;;;;;5029137;28;20210;-82
2022/01/23 12:41:40;;;;;;;26.13;9.00;;;-0.70;99.90;;;;;;5028442;28;20191;-83
2022/01/23 12:44:25;;;;;;;15.17;7.13;;;-0.50;99.90;;;;;;5030198;28;20225;-81
2022/01/23 12:46:53;;;;;;;23.60;8.77;;;-0.80;99.90;;;;;;5030021;28;20191;-82
2022/01/23 12:49:38;;;;;;;41.57;13.43;;;-0.90;99.90;;;;;;5028846;28;20264;-82
2022/01/23 12:52:07;;;;;;;12.27;5.23;;;0.50;99.90;;;;;;5029697;28;20189;-82
2022/01/23 12:54:46;;;;;;;32.03;13.17;;;-0.70;99.90;;;;;;5028217;28;20194;-82
2022/01/23 12:57:14;;;;;;;49.43;14.70;;;-0.70;99.90;;;;;;5028968;28;20182;-82
2022/01/23 12:59:42;;;;;;;15.57;7.17;;;;;;;;;;5028182;28;20197;-84
2022/01/23 13:02:15;;;;;;;17.43;7.60;;;-0.70;99.90;;;;;;5029295;28;20195;-83
2022/01/23 13:04:45;;;;;;;34.20;13.27;;;-0.70;99.90;;;;;;5026123;28;20245;-84
2022/01/23 13:07:20;;;;;;;102.03;34.97;;;0.00;99.90;;;;;;5028011;28;20324;-83
2022/01/23 13:09:54;;;;;;;18.97;9.73;;;;;;;;;;5028912;28;20230;-83
2022/01/23 13:18:03;;;;;;;45.63;13.13;;;;;;;;;;5030225;28;20199;-83
2022/01/23 13:32:49;;;;;;;17.97;8.40;;;-1.00;99.90;;;;;;5030844;28;20258;-82
2022/01/23 13:35:15;;;;;;;14.43;6.60;;;-1.00;99.90;;;;;;5030483;28;20207;-84
2022/01/23 13:37:44;;;;;;;16.53;6.80;;;-1.00;99.90;;;;;;5029773;28;20185;-82
2022/01/23 13:40:14;;;;;;;19.53;7.60;;;-0.80;99.90;;;;;;5029885;28;20277;-83
2022/01/23 13:59:42;;;;;;;9.87;6.50;;;-0.90;99.90;;;;;;5034227;28;20196;-83
2022/01/23 14:02:27;;;;;;;20.43;8.30;;;-1.00;99.90;;;;;;5032521;28;20192;-83
2022/01/23 14:05:12;;;;;;;20.83;10.30;;;-1.10;99.90;;;;;;5035765;28;20233;-84
2022/01/23 14:07:39;;;;;;;17.87;7.77;;;-1.20;99.90;;;;;;5030589;28;20178;-83
2022/01/23 14:10:13;;;;;;;21.13;8.83;;;-1.40;99.90;;;;;;5032149;28;20251;-83
2022/01/23 14:12:39;;;;;;;19.03;7.83;;;;;;;;;;5029598;28;20196;-83
2022/01/23 14:15:13;;;;;;;15.40;7.40;;;-1.20;99.90;;;;;;5013638;28;20186;-84
2022/01/23 14:17:39;;;;;;;16.87;7.60;;;;;;;;;;5029700;28;20184;-82
2022/01/23 14:20:17;;;;;;;17.50;8.30;;;-1.40;99.90;;;;;;5013845;28;20290;-83
2022/01/23 14:22:46;;;;;;;17.00;8.20;;;-1.40;99.90;;;;;;5027485;28;20263;-83
2022/01/23 14:25:12;;;;;;;17.33;8.80;;;;;;;;;;5027028;28;20208;-82
2022/01/23 14:27:41;;;;;;;27.87;11.57;;;-1.30;99.90;;;;;;5029219;28;20683;-83
2022/01/23 14:30:13;;;;;;;52.77;20.40;;;-1.30;99.90;;;;;;5031001;28;20268;-84
2022/01/23 14:32:45;;;;;;;32.20;15.00;;;-1.30;99.90;;;;;;5030047;28;20211;-83
2022/01/23 14:35:29;;;;;;;31.10;15.43;;;-1.30;99.90;;;;;;5027519;28;20185;-83
2022/01/23 14:38:16;;;;;;;52.80;23.33;;;-1.30;99.90;;;;;;5028168;28;20183;-82
2022/01/23 14:40:53;;;;;;;35.37;16.83;;;-1.40;99.90;;;;;;5027849;28;20190;-83
2022/01/23 14:43:20;;;;;;;43.50;24.70;;;;;;;;;;5029317;28;20596;-84
2022/01/23 14:45:48;;;;;;;21.20;10.87;;;-1.50;99.90;;;;;;5030031;28;20229;-84
2022/01/23 14:48:16;;;;;;;23.37;13.77;;;-1.60;99.90;;;;;;5029485;28;20188;-83
2022/01/23 14:50:47;;;;;;;23.30;9.63;;;-1.60;99.90;;;;;;5032350;28;20223;-83
2022/01/23 14:53:15;;;;;;;25.13;11.90;;;-1.60;99.90;;;;;;5030501;28;20263;-84
2022/01/23 14:55:47;;;;;;;26.97;12.60;;;-1.60;99.90;;;;;;5031991;28;20667;-82
2022/01/23 14:58:18;;;;;;;59.50;35.40;;;-1.60;99.90;;;;;;5030456;28;20207;-83
2022/01/23 15:00:45;;;;;;;22.20;11.57;;;;;;;;;;5030811;28;20710;-85
2022/01/23 15:03:11;;;;;;;25.03;11.13;;;;;;;;;;5032404;28;20265;-83
2022/01/23 15:05:39;;;;;;;41.77;18.90;;;-1.70;99.90;;;;;;5031504;28;20654;-83
2022/01/23 15:08:07;;;;;;;59.87;20.90;;;-1.70;99.90;;;;;;5031651;28;20185;-82
2022/01/23 15:10:34;;;;;;;28.50;13.33;;;;;;;;;;5036917;28;20295;-82
2022/01/23 15:13:00;;;;;;;30.20;13.87;;;;;;;;;;5033587;28;20204;-82
2022/01/23 15:15:27;;;;;;;30.27;13.47;;;-1.60;99.90;;;;;;5015308;28;20664;-81
2022/01/23 15:17:53;;;;;;;38.13;16.57;;;;;;;;;;5033726;28;20181;-82
2022/01/23 15:20:19;;;;;;;43.97;17.53;;;;;;;;;;5033857;28;20216;-83
2022/01/23 15:22:45;;;;;;;42.97;18.17;;;;;;;;;;5022419;28;20204;-80
2022/01/23 15:25:13;;;;;;;43.07;18.80;;;-1.60;99.90;;;;;;5043453;28;20182;-83
2022/01/23 15:27:39;;;;;;;49.90;20.20;;;;;;;;;;5040739;28;20286;-82
2022/01/23 15:30:10;;;;;;;40.50;17.77;;;-1.60;99.90;;;;;;5035331;28;20661;-83
2022/01/23 15:32:36;;;;;;;27.20;13.27;;;;;;;;;;5039907;28;20656;-80
2022/01/23 15:35:04;;;;;;;33.15;16.60;;;-1.60;99.90;;;;;;5044147;28;20903;-80
2022/01/23 15:37:31;;;;;;;38.00;18.27;;;;;;;;;;5042715;28;20180;-81
2022/01/23 15:39:57;;;;;;;40.67;16.23;;;;;;;;;;5043676;28;20216;-80
2022/01/23 15:42:23;;;;;;;31.93;13.63;;;;;;;;;;5033345;28;20528;-81
2022/01/23 15:44:50;;;;;;;25.13;10.83;;;-1.70;99.90;;;;;;5044302;28;20182;-80
2022/01/23 15:47:16;;;;;;;42.50;15.50;;;;;;;;;;5011822;28;20190;-82
2022/01/23 15:49:42;;;;;;;26.27;11.03;;;;;;;;;;5044160;28;20188;-83
2022/01/23 15:52:09;;;;;;;31.27;14.93;;;;;;;;;;5010975;28;20345;-83
2022/01/23 15:54:36;;;;;;;42.37;15.53;;;;;;;;;;5053705;28;20191;-84
2022/01/23 15:57:03;;;;;;;39.27;14.50;;;-1.80;99.90;;;;;;5053114;28;20177;-85
2022/01/23 15:59:29;;;;;;;31.97;14.30;;;;;;;;;;5050060;28;20247;-83
2022/01/23 16:01:56;;;;;;;29.30;13.43;;;;;;;;;;5049588;28;20207;-85
2022/01/23 16:04:23;;;;;;;49.73;17.60;;;-1.80;99.90;;;;;;5027413;28;20243;-83
2022/01/23 16:06:49;;;;;;;44.60;15.20;;;;;;;;;;5037748;28;20265;-82
2022/01/23 16:09:16;;;;;;;57.33;19.87;;;;;;;;;;5047955;28;20214;-88
2022/01/23 16:11:42;;;;;;;61.30;21.30;;;;;;;;;;5057664;28;20222;-85
2022/01/23 16:14:08;;;;;;;53.97;17.63;;;;;;;;;;5054583;28;20202;-85
2022/01/23 16:16:35;;;;;;;75.00;25.27;;;;;;;;;;5038704;28;20260;-86
2022/01/23 16:19:01;;;;;;;150.47;45.80;;;;;;;;;;5038009;28;20176;-82
2022/01/23 16:21:27;;;;;;;248.10;70.87;;;-1.80;99.90;;;;;;5031361;28;20669;-82
2022/01/23 16:23:53;;;;;;;195.50;49.63;;;;;;;;;;5013810;28;20657;-83
2022/01/23 16:26:20;;;;;;;95.80;30.27;;;-1.80;99.90;;;;;;5027436;28;20266;-84
2022/01/23 16:28:47;;;;;;;64.13;24.10;;;-1.80;99.90;;;;;;5031335;28;20646;-83
2022/01/23 16:31:13;;;;;;;50.40;17.13;;;;;;;;;;5039369;28;20231;-82
2022/01/23 16:33:40;;;;;;;67.38;24.27;;;;;;;;;;5026185;28;20431;-82
2022/01/23 16:36:07;;;;;;;85.30;26.27;;;-1.80;99.90;;;;;;5031029;28;20287;-82
2022/01/23 16:38:33;;;;;;;63.07;20.87;;;;;;;;;;5014137;28;20173;-82
2022/01/23 16:40:59;;;;;;;87.93;21.23;;;;;;;;;;5040805;28;20176;-84
2022/01/23 16:43:26;;;;;;;113.60;34.33;;;;;;;;;;5045420;28;20177;-82
2022/01/23 16:45:54;;;;;;;134.47;40.40;;;-1.80;99.90;;;;;;5031481;28;20272;-82
2022/01/23 16:48:21;;;;;;;189.00;58.97;;;;;;;;;;5045995;28;20648;-82
2022/01/23 16:50:47;;;;;;;77.50;27.63;;;;;;;;;;5029609;28;20242;-81
2022/01/23 16:53:13;;;;;;;134.37;36.33;;;;;;;;;;5045023;28;20224;-81
2022/01/23 16:55:39;;;;;;;83.83;27.43;;;;;;;;;;5029477;28;20282;-81
2022/01/23 16:58:05;;;;;;;71.67;23.63;;;;;;;;;;5044370;28;20214;-80
2022/01/23 17:00:31;;;;;;;96.17;29.00;;;;;;;;;;5030460;28;20686;-82
2022/01/23 17:02:59;;;;;;;56.57;23.73;;;-2.20;99.90;;;;;;5031584;28;20181;-81
2022/01/23 17:05:25;;;;;;;40.43;18.07;;;-2.00;99.90;;;;;;5005861;28;20207;-81
2022/01/23 17:07:51;;;;;;;65.50;23.47;;;-1.90;99.90;;;;;;5029730;28;20205;-82
2022/01/23 17:10:16;;;;;;;71.57;23.87;;;-2.20;99.90;;;;;;5047249;28;20208;-83
2022/01/23 17:12:43;;;;;;;47.03;19.87;;;-2.40;99.90;;;;;;5031967;28;20638;-82
2022/01/23 17:15:09;;;;;;;50.50;20.80;;;;;;;;;;5025332;28;20193;-83